sensor_id;sensor_type;location;lat;lon;timestamp;pressure;altitude;pressure_sealevel;temperature;humidity
60246;BME280;46107;53.356;-1.524;2023-12-20T10:03:45;98830.70;;;7.80;82.89
60246;BME280;46107;53.356;-1.524;2023-12-20T10:06:13;98829.59;;;8.47;78.77
60246;BME280;46107;53.356;-1.524;2023-12-20T10:08:40;98830.85;;;8.70;76.46
60246;BME280;46107;53.356;-1.524;2023-12-20T10:11:08;98834.54;;;9.11;73.42
60246;BME280;46107;53.356;-1.524;2023-12-20T10:13:39;98815.68;;;9.99;69.49
60246;BME280;46107;53.356;-1.524;2023-12-20T10:16:06;98821.80;;;8.51;75.00
60246;BME280;46107;53.356;-1.524;2023-12-20T10:18:34;98820.78;;;8.21;77.52
60246;BME280;46107;53.356;-1.524;2023-12-20T10:21:01;98803.69;;;9.71;72.12
60246;BME280;46107;53.356;-1.524;2023-12-20T10:23:29;98816.30;;;7.98;78.79
60246;BME280;46107;53.356;-1.524;2023-12-20T10:25:57;98807.38;;;8.58;76.33
60246;BME280;46107;53.356;-1.524;2023-12-20T10:28:24;98786.73;;;8.96;74.97
60246;BME280;46107;53.356;-1.524;2023-12-20T10:30:51;98790.97;;;8.71;74.91
60246;BME280;46107;53.356;-1.524;2023-12-20T10:33:24;98785.13;;;10.20;71.28
60246;BME280;46107;53.356;-1.524;2023-12-20T10:35:52;98790.55;;;8.61;76.04
60246;BME280;46107;53.356;-1.524;2023-12-20T10:38:20;98790.73;;;8.08;79.87
60246;BME280;46107;53.356;-1.524;2023-12-20T10:40:47;98766.52;;;8.73;76.59
60246;BME280;46107;53.356;-1.524;2023-12-20T10:43:15;98755.10;;;8.07;79.18
60246;BME280;46107;53.356;-1.524;2023-12-20T10:45:43;98758.59;;;7.42;82.40
60246;BME280;46107;53.356;-1.524;2023-12-20T10:48:10;98738.09;;;8.10;79.78
60246;BME280;46107;53.356;-1.524;2023-12-20T10:50:38;98730.24;;;8.13;81.79
60246;BME280;46107;53.356;-1.524;2023-12-20T10:53:06;98722.61;;;7.43;82.54
60246;BME280;46107;53.356;-1.524;2023-12-20T10:55:34;98727.56;;;8.32;80.09
60246;BME280;46107;53.356;-1.524;2023-12-20T10:58:02;98728.68;;;7.68;81.10
60246;BME280;46107;53.356;-1.524;2023-12-20T11:00:34;98721.88;;;7.43;82.46
60246;BME280;46107;53.356;-1.524;2023-12-20T11:03:02;98721.21;;;7.10;83.51
60246;BME280;46107;53.356;-1.524;2023-12-20T11:05:36;98710.47;;;7.56;84.42
60246;BME280;46107;53.356;-1.524;2023-12-20T11:08:10;98708.63;;;7.12;86.78
60246;BME280;46107;53.356;-1.524;2023-12-20T11:10:43;98684.09;;;8.43;82.12
60246;BME280;46107;53.356;-1.524;2023-12-20T11:13:20;98684.84;;;7.17;84.86
60246;BME280;46107;53.356;-1.524;2023-12-20T11:15:47;98665.73;;;5.99;90.27
60246;BME280;46107;53.356;-1.524;2023-12-20T11:18:15;98643.44;;;6.69;90.39
60246;BME280;46107;53.356;-1.524;2023-12-20T11:20:42;98652.39;;;6.31;93.63
60246;BME280;46107;53.356;-1.524;2023-12-20T11:23:09;98634.61;;;6.43;93.99
60246;BME280;46107;53.356;-1.524;2023-12-20T11:25:54;98637.65;;;7.15;90.58
60246;BME280;46107;53.356;-1.524;2023-12-20T11:28:24;98610.52;;;6.89;92.08
60246;BME280;46107;53.356;-1.524;2023-12-20T11:30:53;98630.49;;;6.49;94.76
60246;BME280;46107;53.356;-1.524;2023-12-20T11:33:24;98640.42;;;6.63;92.79
60246;BME280;46107;53.356;-1.524;2023-12-20T11:35:51;98624.91;;;6.24;95.16
60246;BME280;46107;53.356;-1.524;2023-12-20T11:38:20;98619.41;;;6.33;96.79
60246;BME280;46107;53.356;-1.524;2023-12-20T11:40:48;98593.12;;;6.46;93.85
60246;BME280;46107;53.356;-1.524;2023-12-20T11:43:30;98593.57;;;6.51;95.78
60246;BME280;46107;53.356;-1.524;2023-12-20T11:46:03;98574.47;;;5.93;97.53
60246;BME280;46107;53.356;-1.524;2023-12-20T11:48:30;98571.00;;;6.16;96.10
60246;BME280;46107;53.356;-1.524;2023-12-20T11:50:57;98570.00;;;5.80;97.24
60246;BME280;46107;53.356;-1.524;2023-12-20T11:53:25;98576.70;;;6.02;97.87
60246;BME280;46107;53.356;-1.524;2023-12-20T11:55:53;98566.46;;;5.98;97.93
60246;BME280;46107;53.356;-1.524;2023-12-20T11:58:21;98551.35;;;7.00;92.62
60246;BME280;46107;53.356;-1.524;2023-12-20T12:00:49;98542.80;;;6.69;93.93
60246;BME280;46107;53.356;-1.524;2023-12-20T12:03:17;98526.22;;;7.06;91.20
60246;BME280;46107;53.356;-1.524;2023-12-20T12:05:47;98505.10;;;6.53;94.77
60246;BME280;46107;53.356;-1.524;2023-12-20T12:08:15;98509.26;;;6.64;91.49
60246;BME280;46107;53.356;-1.524;2023-12-20T12:10:43;98507.03;;;6.86;91.35
60246;BME280;46107;53.356;-1.524;2023-12-20T12:13:11;98511.08;;;6.66;92.12
60246;BME280;46107;53.356;-1.524;2023-12-20T12:15:38;98508.82;;;6.70;91.72
60246;BME280;46107;53.356;-1.524;2023-12-20T12:18:06;98498.84;;;6.50;93.29
60246;BME280;46107;53.356;-1.524;2023-12-20T12:20:34;98481.54;;;6.56;92.58
60246;BME280;46107;53.356;-1.524;2023-12-20T12:23:05;98497.13;;;6.92;91.70
60246;BME280;46107;53.356;-1.524;2023-12-20T12:25:35;98495.72;;;6.30;93.96
60246;BME280;46107;53.356;-1.524;2023-12-20T12:28:05;98492.27;;;6.74;93.06
60246;BME280;46107;53.356;-1.524;2023-12-20T12:30:32;98475.00;;;6.75;92.76
60246;BME280;46107;53.356;-1.524;2023-12-20T12:32:59;98493.22;;;6.80;92.57
60246;BME280;46107;53.356;-1.524;2023-12-20T12:35:27;98472.54;;;6.65;94.45
60246;BME280;46107;53.356;-1.524;2023-12-20T12:37:54;98494.86;;;6.68;93.37
60246;BME280;46107;53.356;-1.524;2023-12-20T12:40:22;98506.61;;;7.40;91.89
60246;BME280;46107;53.356;-1.524;2023-12-20T12:42:51;98481.99;;;7.38;90.13
60246;BME280;46107;53.356;-1.524;2023-12-20T12:45:18;98472.16;;;7.52;90.68
60246;BME280;46107;53.356;-1.524;2023-12-20T12:47:47;98485.46;;;7.04;89.06
60246;BME280;46107;53.356;-1.524;2023-12-20T12:50:14;98476.42;;;6.39;94.14
60246;BME280;46107;53.356;-1.524;2023-12-20T12:52:44;98487.83;;;6.54;93.27
60246;BME280;46107;53.356;-1.524;2023-12-20T12:55:13;98488.66;;;6.92;92.70
60246;BME280;46107;53.356;-1.524;2023-12-20T12:57:42;98465.57;;;6.27;93.74
60246;BME280;46107;53.356;-1.524;2023-12-20T13:00:12;98462.65;;;6.80;93.26
60246;BME280;46107;53.356;-1.524;2023-12-20T13:02:41;98469.55;;;6.87;90.99
60246;BME280;46107;53.356;-1.524;2023-12-20T13:05:10;98442.59;;;7.15;90.05
60246;BME280;46107;53.356;-1.524;2023-12-20T13:07:38;98466.62;;;7.56;90.61
60246;BME280;46107;53.356;-1.524;2023-12-20T13:10:07;98446.66;;;7.35;90.73
60246;BME280;46107;53.356;-1.524;2023-12-20T13:12:36;98432.03;;;7.04;91.24
60246;BME280;46107;53.356;-1.524;2023-12-20T13:15:06;98433.36;;;6.98;92.09
60246;BME280;46107;53.356;-1.524;2023-12-20T13:17:34;98438.66;;;7.67;90.88
60246;BME280;46107;53.356;-1.524;2023-12-20T13:20:03;98428.13;;;6.99;92.15
60246;BME280;46107;53.356;-1.524;2023-12-20T13:22:32;98422.04;;;7.39;90.88
60246;BME280;46107;53.356;-1.524;2023-12-20T13:25:00;98415.87;;;7.34;90.16
60246;BME280;46107;53.356;-1.524;2023-12-20T13:27:28;98418.12;;;7.22;91.31
60246;BME280;46107;53.356;-1.524;2023-12-20T13:29:56;98413.16;;;7.19;90.48
60246;BME280;46107;53.356;-1.524;2023-12-20T13:32:25;98410.12;;;6.64;93.39
60246;BME280;46107;53.356;-1.524;2023-12-20T13:34:54;98401.89;;;6.94;92.83
60246;BME280;46107;53.356;-1.524;2023-12-20T13:37:22;98406.24;;;6.90;95.72
60246;BME280;46107;53.356;-1.524;2023-12-20T13:39:51;98382.57;;;6.57;95.57
60246;BME280;46107;53.356;-1.524;2023-12-20T13:42:24;98374.97;;;6.58;95.58
60246;BME280;46107;53.356;-1.524;2023-12-20T13:44:52;98373.60;;;6.84;94.50
60246;BME280;46107;53.356;-1.524;2023-12-20T13:47:19;98365.12;;;6.70;95.72
60246;BME280;46107;53.356;-1.524;2023-12-20T13:49:47;98377.68;;;6.25;97.38
60246;BME280;46107;53.356;-1.524;2023-12-20T13:52:14;98340.90;;;6.52;97.41
60246;BME280;46107;53.356;-1.524;2023-12-20T13:54:42;98333.13;;;6.62;96.56
60246;BME280;46107;53.356;-1.524;2023-12-20T13:57:09;98344.15;;;6.87;94.94
60246;BME280;46107;53.356;-1.524;2023-12-20T13:59:37;98339.47;;;6.86;95.22
60246;BME280;46107;53.356;-1.524;2023-12-20T14:02:04;98337.29;;;6.57;95.32
60246;BME280;46107;53.356;-1.524;2023-12-20T14:04:31;98325.11;;;6.61;96.73
60246;BME280;46107;53.356;-1.524;2023-12-20T14:06:59;98319.55;;;6.89;96.12
60246;BME280;46107;53.356;-1.524;2023-12-20T14:09:26;98319.99;;;6.53;95.59
60246;BME280;46107;53.356;-1.524;2023-12-20T14:11:53;98310.15;;;6.90;93.23
60246;BME280;46107;53.356;-1.524;2023-12-20T14:14:22;98310.47;;;7.22;93.74
60246;BME280;46107;53.356;-1.524;2023-12-20T14:16:49;98309.92;;;6.73;95.61
60246;BME280;46107;53.356;-1.524;2023-12-20T14:19:16;98324.88;;;7.24;92.81
60246;BME280;46107;53.356;-1.524;2023-12-20T14:21:44;98313.29;;;6.82;95.50
60246;BME280;46107;53.356;-1.524;2023-12-20T14:24:12;98315.08;;;6.36;97.23
60246;BME280;46107;53.356;-1.524;2023-12-20T14:26:40;98303.24;;;7.11;96.37
60246;BME280;46107;53.356;-1.524;2023-12-20T14:29:07;98323.17;;;7.16;95.30
60246;BME280;46107;53.356;-1.524;2023-12-20T14:31:35;98318.34;;;7.90;90.11
60246;BME280;46107;53.356;-1.524;2023-12-20T14:34:03;98328.09;;;8.08;87.59
60246;BME280;46107;53.356;-1.524;2023-12-20T14:36:33;98338.60;;;7.86;89.45
60246;BME280;46107;53.356;-1.524;2023-12-20T14:39:01;98328.03;;;7.12;92.99
60246;BME280;46107;53.356;-1.524;2023-12-20T14:41:28;98314.36;;;7.53;92.76
60246;BME280;46107;53.356;-1.524;2023-12-20T14:43:56;98324.06;;;8.54;86.35
60246;BME280;46107;53.356;-1.524;2023-12-20T14:46:23;98340.78;;;7.83;89.25
60246;BME280;46107;53.356;-1.524;2023-12-20T14:48:51;98348.16;;;7.56;89.76
60246;BME280;46107;53.356;-1.524;2023-12-20T14:51:19;98364.50;;;7.37;94.02
60246;BME280;46107;53.356;-1.524;2023-12-20T14:53:46;98353.94;;;8.18;90.55
60246;BME280;46107;53.356;-1.524;2023-12-20T14:56:13;98361.85;;;7.58;91.57
60246;BME280;46107;53.356;-1.524;2023-12-20T14:58:41;98374.22;;;7.54;90.47
60246;BME280;46107;53.356;-1.524;2023-12-20T15:01:08;98365.58;;;8.02;89.20
60246;BME280;46107;53.356;-1.524;2023-12-20T15:03:36;98359.65;;;7.55;88.82
60246;BME280;46107;53.356;-1.524;2023-12-20T15:06:04;98365.66;;;7.08;92.36
60246;BME280;46107;53.356;-1.524;2023-12-20T15:08:31;98370.97;;;7.34;90.40
60246;BME280;46107;53.356;-1.524;2023-12-20T15:10:59;98371.37;;;7.59;89.25
60246;BME280;46107;53.356;-1.524;2023-12-20T15:13:26;98376.45;;;7.62;90.79
60246;BME280;46107;53.356;-1.524;2023-12-20T15:15:54;98372.83;;;7.23;93.88
60246;BME280;46107;53.356;-1.524;2023-12-20T15:18:21;98377.43;;;7.25;92.10
60246;BME280;46107;53.356;-1.524;2023-12-20T15:20:49;98371.73;;;7.43;92.79
60246;BME280;46107;53.356;-1.524;2023-12-20T15:23:16;98366.53;;;7.12;94.26
60246;BME280;46107;53.356;-1.524;2023-12-20T15:25:49;98365.89;;;7.41;93.96
60246;BME280;46107;53.356;-1.524;2023-12-20T15:28:17;98361.82;;;8.09;91.69
60246;BME280;46107;53.356;-1.524;2023-12-20T15:30:44;98349.79;;;6.94;93.18
60246;BME280;46107;53.356;-1.524;2023-12-20T15:33:11;98357.60;;;7.38;90.00
60246;BME280;46107;53.356;-1.524;2023-12-20T15:35:39;98364.56;;;7.19;92.39
60246;BME280;46107;53.356;-1.524;2023-12-20T15:38:06;98353.73;;;7.02;91.99
60246;BME280;46107;53.356;-1.524;2023-12-20T15:40:33;98355.82;;;8.21;89.26
60246;BME280;46107;53.356;-1.524;2023-12-20T15:43:01;98354.40;;;7.81;88.86
60246;BME280;46107;53.356;-1.524;2023-12-20T15:45:28;98347.86;;;7.48;92.49
60246;BME280;46107;53.356;-1.524;2023-12-20T15:47:56;98349.18;;;7.02;95.62
60246;BME280;46107;53.356;-1.524;2023-12-20T15:50:24;98340.54;;;7.39;92.27
60246;BME280;46107;53.356;-1.524;2023-12-20T15:52:51;98342.58;;;7.57;89.94
60246;BME280;46107;53.356;-1.524;2023-12-20T15:55:18;98344.46;;;7.70;90.71
60246;BME280;46107;53.356;-1.524;2023-12-20T15:57:46;98348.15;;;8.30;88.77
60246;BME280;46107;53.356;-1.524;2023-12-20T16:00:14;98358.01;;;7.71;89.22
60246;BME280;46107;53.356;-1.524;2023-12-20T16:02:42;98328.44;;;7.62;90.59
60246;BME280;46107;53.356;-1.524;2023-12-20T16:05:09;98336.86;;;7.63;91.05
60246;BME280;46107;53.356;-1.524;2023-12-20T16:07:37;98329.87;;;7.60;89.48
60246;BME280;46107;53.356;-1.524;2023-12-20T16:10:06;98330.18;;;7.83;89.42
60246;BME280;46107;53.356;-1.524;2023-12-20T16:12:33;98327.68;;;7.76;91.47
60246;BME280;46107;53.356;-1.524;2023-12-20T16:15:01;98320.58;;;8.34;88.22
60246;BME280;46107;53.356;-1.524;2023-12-20T16:17:28;98326.94;;;8.12;89.17
60246;BME280;46107;53.356;-1.524;2023-12-20T16:19:56;98315.16;;;7.46;91.90
60246;BME280;46107;53.356;-1.524;2023-12-20T16:22:23;98313.34;;;7.79;91.51
60246;BME280;46107;53.356;-1.524;2023-12-20T16:24:51;98306.03;;;7.23;91.31
60246;BME280;46107;53.356;-1.524;2023-12-20T16:27:18;98293.44;;;7.61;92.23
60246;BME280;46107;53.356;-1.524;2023-12-20T16:29:46;98307.35;;;7.46;91.70
60246;BME280;46107;53.356;-1.524;2023-12-20T16:32:13;98294.64;;;7.00;93.08
60246;BME280;46107;53.356;-1.524;2023-12-20T16:34:40;98290.82;;;8.03;92.85
60246;BME280;46107;53.356;-1.524;2023-12-20T16:37:08;98292.57;;;7.77;92.20
60246;BME280;46107;53.356;-1.524;2023-12-20T16:39:35;98294.08;;;6.76;97.04
60246;BME280;46107;53.356;-1.524;2023-12-20T16:42:03;98296.31;;;7.21;95.67
60246;BME280;46107;53.356;-1.524;2023-12-20T16:44:31;98292.74;;;7.34;93.36
60246;BME280;46107;53.356;-1.524;2023-12-20T16:46:59;98303.03;;;7.67;93.64
60246;BME280;46107;53.356;-1.524;2023-12-20T16:49:26;98301.99;;;7.34;95.24
60246;BME280;46107;53.356;-1.524;2023-12-20T16:51:54;98300.13;;;7.85;92.65
60246;BME280;46107;53.356;-1.524;2023-12-20T16:54:21;98289.09;;;7.60;91.60
60246;BME280;46107;53.356;-1.524;2023-12-20T16:56:49;98283.16;;;7.15;92.43
60246;BME280;46107;53.356;-1.524;2023-12-20T16:59:16;98265.86;;;8.27;90.01
60246;BME280;46107;53.356;-1.524;2023-12-20T17:01:44;98260.97;;;7.51;91.29
60246;BME280;46107;53.356;-1.524;2023-12-20T17:04:11;98262.39;;;7.43;92.84
60246;BME280;46107;53.356;-1.524;2023-12-20T17:06:39;98256.76;;;7.58;93.82
60246;BME280;46107;53.356;-1.524;2023-12-20T17:09:06;98252.74;;;7.49;93.77
60246;BME280;46107;53.356;-1.524;2023-12-20T17:11:34;98264.06;;;7.22;95.95
60246;BME280;46107;53.356;-1.524;2023-12-20T17:14:01;98249.12;;;7.02;96.27
60246;BME280;46107;53.356;-1.524;2023-12-20T17:16:29;98247.48;;;7.31;94.62
60246;BME280;46107;53.356;-1.524;2023-12-20T17:18:56;98251.16;;;7.88;93.78
60246;BME280;46107;53.356;-1.524;2023-12-20T17:21:23;98249.76;;;7.93;91.03
60246;BME280;46107;53.356;-1.524;2023-12-20T17:23:51;98274.04;;;7.82;93.13
60246;BME280;46107;53.356;-1.524;2023-12-20T17:26:18;98267.97;;;7.84;92.87
60246;BME280;46107;53.356;-1.524;2023-12-20T17:28:46;98262.88;;;7.80;91.50
60246;BME280;46107;53.356;-1.524;2023-12-20T17:31:13;98277.52;;;7.50;92.60
60246;BME280;46107;53.356;-1.524;2023-12-20T17:33:41;98269.48;;;7.72;94.36
60246;BME280;46107;53.356;-1.524;2023-12-20T17:36:09;98272.64;;;7.22;94.40
60246;BME280;46107;53.356;-1.524;2023-12-20T17:38:37;98275.11;;;7.66;95.52
60246;BME280;46107;53.356;-1.524;2023-12-20T17:41:04;98268.78;;;6.92;96.18
60246;BME280;46107;53.356;-1.524;2023-12-20T17:43:32;98283.19;;;7.29;94.47
60246;BME280;46107;53.356;-1.524;2023-12-20T17:45:59;98303.85;;;7.15;94.55
60246;BME280;46107;53.356;-1.524;2023-12-20T17:48:27;98314.94;;;7.51;95.01
60246;BME280;46107;53.356;-1.524;2023-12-20T17:50:54;98323.41;;;7.61;96.25
60246;BME280;46107;53.356;-1.524;2023-12-20T17:53:22;98313.78;;;7.03;95.38
60246;BME280;46107;53.356;-1.524;2023-12-20T17:55:49;98322.28;;;8.25;90.42
60246;BME280;46107;53.356;-1.524;2023-12-20T17:58:16;98337.37;;;8.13;90.56
60246;BME280;46107;53.356;-1.524;2023-12-20T18:00:44;98332.74;;;7.58;92.77
60246;BME280;46107;53.356;-1.524;2023-12-20T18:03:11;98333.08;;;7.87;96.00
60246;BME280;46107;53.356;-1.524;2023-12-20T18:05:39;98336.02;;;8.17;92.33
60246;BME280;46107;53.356;-1.524;2023-12-20T18:08:06;98341.17;;;7.81;91.51
60246;BME280;46107;53.356;-1.524;2023-12-20T18:10:34;98345.67;;;8.09;90.99
60246;BME280;46107;53.356;-1.524;2023-12-20T18:13:01;98335.04;;;7.19;94.19
60246;BME280;46107;53.356;-1.524;2023-12-20T18:15:29;98336.40;;;8.43;92.54
60246;BME280;46107;53.356;-1.524;2023-12-20T18:17:56;98331.98;;;7.25;94.11
60246;BME280;46107;53.356;-1.524;2023-12-20T18:20:24;98331.41;;;9.07;87.57
60246;BME280;46107;53.356;-1.524;2023-12-20T18:22:51;98325.79;;;7.67;91.42
60246;BME280;46107;53.356;-1.524;2023-12-20T18:25:18;98330.93;;;7.75;92.21
60246;BME280;46107;53.356;-1.524;2023-12-20T18:27:46;98330.52;;;7.56;94.29
60246;BME280;46107;53.356;-1.524;2023-12-20T18:30:13;98324.16;;;7.56;94.41
60246;BME280;46107;53.356;-1.524;2023-12-20T18:32:41;98324.09;;;7.50;94.38
60246;BME280;46107;53.356;-1.524;2023-12-20T18:35:08;98329.11;;;7.96;94.43
60246;BME280;46107;53.356;-1.524;2023-12-20T18:37:36;98319.57;;;8.04;92.92
60246;BME280;46107;53.356;-1.524;2023-12-20T18:40:03;98321.82;;;7.61;95.33
60246;BME280;46107;53.356;-1.524;2023-12-20T18:42:30;98300.25;;;8.31;91.62
60246;BME280;46107;53.356;-1.524;2023-12-20T18:44:58;98308.05;;;7.77;94.18
60246;BME280;46107;53.356;-1.524;2023-12-20T18:47:25;98321.34;;;7.33;94.26
60246;BME280;46107;53.356;-1.524;2023-12-20T18:49:53;98328.40;;;7.93;92.31
60246;BME280;46107;53.356;-1.524;2023-12-20T18:52:20;98328.02;;;8.17;90.25
60246;BME280;46107;53.356;-1.524;2023-12-20T18:54:48;98330.27;;;8.36;87.17
60246;BME280;46107;53.356;-1.524;2023-12-20T18:57:15;98328.37;;;9.36;83.34
60246;BME280;46107;53.356;-1.524;2023-12-20T18:59:43;98340.77;;;8.37;88.48
60246;BME280;46107;53.356;-1.524;2023-12-20T19:02:10;98336.77;;;8.26;87.43
60246;BME280;46107;53.356;-1.524;2023-12-20T19:04:37;98332.54;;;8.91;86.47
60246;BME280;46107;53.356;-1.524;2023-12-20T19:07:05;98326.33;;;8.14;90.58
60246;BME280;46107;53.356;-1.524;2023-12-20T19:09:32;98315.63;;;8.50;86.40
60246;BME280;46107;53.356;-1.524;2023-12-20T19:12:00;98319.58;;;8.53;86.92
60246;BME280;46107;53.356;-1.524;2023-12-20T19:14:27;98319.93;;;8.61;86.55
60246;BME280;46107;53.356;-1.524;2023-12-20T19:16:55;98321.28;;;9.35;83.08
60246;BME280;46107;53.356;-1.524;2023-12-20T19:19:22;98327.21;;;9.26;85.00
60246;BME280;46107;53.356;-1.524;2023-12-20T19:21:50;98325.95;;;8.41;86.31
60246;BME280;46107;53.356;-1.524;2023-12-20T19:24:17;98324.94;;;9.59;83.38
60246;BME280;46107;53.356;-1.524;2023-12-20T19:26:45;98325.94;;;9.23;83.83
60246;BME280;46107;53.356;-1.524;2023-12-20T19:29:12;98329.56;;;8.03;88.50
60246;BME280;46107;53.356;-1.524;2023-12-20T19:31:40;98328.15;;;8.08;87.31
60246;BME280;46107;53.356;-1.524;2023-12-20T19:34:07;98326.62;;;9.50;82.76
60246;BME280;46107;53.356;-1.524;2023-12-20T19:36:34;98307.54;;;8.75;84.91
60246;BME280;46107;53.356;-1.524;2023-12-20T19:39:02;98303.93;;;8.33;86.06
60246;BME280;46107;53.356;-1.524;2023-12-20T19:41:29;98302.15;;;7.92;88.13
60246;BME280;46107;53.356;-1.524;2023-12-20T19:43:57;98301.93;;;8.74;86.59
60246;BME280;46107;53.356;-1.524;2023-12-20T19:46:24;98302.10;;;8.86;86.21
60246;BME280;46107;53.356;-1.524;2023-12-20T19:48:52;98318.50;;;8.35;88.16
60246;BME280;46107;53.356;-1.524;2023-12-20T19:51:19;98311.34;;;8.61;85.24
60246;BME280;46107;53.356;-1.524;2023-12-20T19:53:46;98315.98;;;8.07;87.56
60246;BME280;46107;53.356;-1.524;2023-12-20T19:56:14;98311.01;;;9.20;83.84
60246;BME280;46107;53.356;-1.524;2023-12-20T19:58:41;98306.65;;;8.51;86.12
60246;BME280;46107;53.356;-1.524;2023-12-20T20:01:09;98299.59;;;8.63;84.15
60246;BME280;46107;53.356;-1.524;2023-12-20T20:03:37;98317.81;;;8.14;87.07
60246;BME280;46107;53.356;-1.524;2023-12-20T20:06:05;98311.71;;;8.25;87.30
60246;BME280;46107;53.356;-1.524;2023-12-20T20:08:32;98304.19;;;8.38;86.42
60246;BME280;46107;53.356;-1.524;2023-12-20T20:11:00;98291.31;;;8.97;84.22
60246;BME280;46107;53.356;-1.524;2023-12-20T20:13:27;98281.74;;;8.87;83.36
60246;BME280;46107;53.356;-1.524;2023-12-20T20:15:55;98274.35;;;8.48;85.83
60246;BME280;46107;53.356;-1.524;2023-12-20T20:18:22;98269.19;;;8.80;83.61
60246;BME280;46107;53.356;-1.524;2023-12-20T20:20:50;98263.58;;;8.27;86.44
60246;BME280;46107;53.356;-1.524;2023-12-20T20:23:17;98262.63;;;7.83;90.55
60246;BME280;46107;53.356;-1.524;2023-12-20T20:25:45;98265.70;;;8.45;89.06
60246;BME280;46107;53.356;-1.524;2023-12-20T20:28:13;98259.11;;;8.68;86.96
60246;BME280;46107;53.356;-1.524;2023-12-20T20:30:40;98242.21;;;7.85;89.75
60246;BME280;46107;53.356;-1.524;2023-12-20T20:33:07;98235.28;;;8.19;88.66
60246;BME280;46107;53.356;-1.524;2023-12-20T20:35:35;98227.35;;;7.98;90.47
60246;BME280;46107;53.356;-1.524;2023-12-20T20:38:03;98219.69;;;8.67;89.11
60246;BME280;46107;53.356;-1.524;2023-12-20T20:40:30;98205.67;;;8.69;86.10
60246;BME280;46107;53.356;-1.524;2023-12-20T20:42:57;98219.65;;;8.06;89.35
60246;BME280;46107;53.356;-1.524;2023-12-20T20:45:25;98215.78;;;8.68;86.47
60246;BME280;46107;53.356;-1.524;2023-12-20T20:47:52;98212.58;;;8.48;84.34
60246;BME280;46107;53.356;-1.524;2023-12-20T20:50:20;98215.30;;;7.95;88.41
60246;BME280;46107;53.356;-1.524;2023-12-20T20:52:47;98203.21;;;7.76;89.68
60246;BME280;46107;53.356;-1.524;2023-12-20T20:55:15;98200.31;;;8.57;86.23
60246;BME280;46107;53.356;-1.524;2023-12-20T20:57:42;98196.56;;;7.98;87.01
60246;BME280;46107;53.356;-1.524;2023-12-20T21:00:10;98202.96;;;7.57;91.82
60246;BME280;46107;53.356;-1.524;2023-12-20T21:02:38;98207.99;;;7.86;88.29
60246;BME280;46107;53.356;-1.524;2023-12-20T21:05:06;98221.56;;;7.90;89.24
60246;BME280;46107;53.356;-1.524;2023-12-20T21:07:34;98223.18;;;8.57;88.54
60246;BME280;46107;53.356;-1.524;2023-12-20T21:10:02;98216.02;;;8.31;89.74
60246;BME280;46107;53.356;-1.524;2023-12-20T21:12:29;98216.94;;;8.15;87.72
60246;BME280;46107;53.356;-1.524;2023-12-20T21:14:56;98210.55;;;8.21;87.05
60246;BME280;46107;53.356;-1.524;2023-12-20T21:17:23;98205.81;;;9.04;84.10
60246;BME280;46107;53.356;-1.524;2023-12-20T21:19:51;98207.03;;;8.55;86.44
60246;BME280;46107;53.356;-1.524;2023-12-20T21:22:18;98200.78;;;9.09;83.96
60246;BME280;46107;53.356;-1.524;2023-12-20T21:24:46;98200.06;;;8.04;87.75
60246;BME280;46107;53.356;-1.524;2023-12-20T21:27:13;98196.84;;;8.83;86.98
60246;BME280;46107;53.356;-1.524;2023-12-20T21:29:41;98193.78;;;8.97;86.32
60246;BME280;46107;53.356;-1.524;2023-12-20T21:32:08;98185.07;;;8.75;84.14
60246;BME280;46107;53.356;-1.524;2023-12-20T21:34:36;98176.47;;;8.19;86.58
60246;BME280;46107;53.356;-1.524;2023-12-20T21:37:04;98169.98;;;8.57;86.69
60246;BME280;46107;53.356;-1.524;2023-12-20T21:39:32;98166.14;;;8.91;85.49
60246;BME280;46107;53.356;-1.524;2023-12-20T21:41:59;98167.56;;;8.49;83.70
60246;BME280;46107;53.356;-1.524;2023-12-20T21:44:26;98155.12;;;8.93;84.34
60246;BME280;46107;53.356;-1.524;2023-12-20T21:46:54;98138.37;;;8.59;85.89
60246;BME280;46107;53.356;-1.524;2023-12-20T21:49:21;98136.26;;;8.49;87.84
60246;BME280;46107;53.356;-1.524;2023-12-20T21:51:49;98130.93;;;8.10;89.50
60246;BME280;46107;53.356;-1.524;2023-12-20T21:54:16;98128.92;;;8.04;89.98
60246;BME280;46107;53.356;-1.524;2023-12-20T21:56:44;98119.36;;;7.79;92.46
60246;BME280;46107;53.356;-1.524;2023-12-20T21:59:11;98117.43;;;8.87;86.52
60246;BME280;46107;53.356;-1.524;2023-12-20T22:01:41;98120.86;;;8.93;84.60
60246;BME280;46107;53.356;-1.524;2023-12-20T22:04:08;98116.42;;;9.28;84.09
60246;BME280;46107;53.356;-1.524;2023-12-20T22:06:35;98114.19;;;8.48;86.99
60246;BME280;46107;53.356;-1.524;2023-12-20T22:09:03;98096.43;;;8.74;84.88
60246;BME280;46107;53.356;-1.524;2023-12-20T22:11:30;98092.16;;;9.54;81.32
60246;BME280;46107;53.356;-1.524;2023-12-20T22:13:58;98094.41;;;8.53;86.37
60246;BME280;46107;53.356;-1.524;2023-12-20T22:16:25;98087.56;;;8.21;89.22
60246;BME280;46107;53.356;-1.524;2023-12-20T22:18:55;98070.48;;;8.31;88.49
60246;BME280;46107;53.356;-1.524;2023-12-20T22:21:23;98057.86;;;7.99;88.97
60246;BME280;46107;53.356;-1.524;2023-12-20T22:23:51;98060.13;;;8.21;89.83
60246;BME280;46107;53.356;-1.524;2023-12-20T22:26:19;98035.34;;;7.43;91.31
60246;BME280;46107;53.356;-1.524;2023-12-20T22:28:47;98027.81;;;8.06;91.44
60246;BME280;46107;53.356;-1.524;2023-12-20T22:31:14;98018.00;;;8.19;88.90
60246;BME280;46107;53.356;-1.524;2023-12-20T22:33:42;98008.53;;;7.59;90.85
60246;BME280;46107;53.356;-1.524;2023-12-20T22:36:10;98017.72;;;8.01;90.32
60246;BME280;46107;53.356;-1.524;2023-12-20T22:38:38;97991.88;;;7.95;91.74
60246;BME280;46107;53.356;-1.524;2023-12-20T22:41:06;97979.76;;;7.76;92.16
60246;BME280;46107;53.356;-1.524;2023-12-20T22:43:33;97998.56;;;7.88;91.47
60246;BME280;46107;53.356;-1.524;2023-12-20T22:46:00;97978.00;;;7.09;95.18
60246;BME280;46107;53.356;-1.524;2023-12-20T22:48:28;97979.51;;;7.38;92.14
60246;BME280;46107;53.356;-1.524;2023-12-20T22:50:55;97962.18;;;7.30;95.26
60246;BME280;46107;53.356;-1.524;2023-12-20T22:53:23;97950.56;;;7.40;93.69
60246;BME280;46107;53.356;-1.524;2023-12-20T22:55:50;97933.15;;;7.85;92.53
60246;BME280;46107;53.356;-1.524;2023-12-20T22:58:18;97929.22;;;7.67;93.62
60246;BME280;46107;53.356;-1.524;2023-12-20T23:00:45;97921.31;;;8.10;92.59
60246;BME280;46107;53.356;-1.524;2023-12-20T23:03:13;97935.02;;;8.16;92.40
60246;BME280;46107;53.356;-1.524;2023-12-20T23:05:41;97923.90;;;8.00;90.83